createdAt,value
2023-02-05T00:00:13.389Z,0.00
2023-02-05T00:01:13.399Z,0.00
2023-02-05T00:02:13.387Z,0.00
2023-02-05T00:03:13.369Z,0.00
2023-02-05T00:04:13.341Z,0.00
2023-02-05T00:05:13.325Z,0.00
2023-02-05T00:06:13.310Z,0.00
2023-02-05T00:07:13.304Z,0.00
2023-02-05T00:08:13.285Z,0.00
2023-02-05T00:09:13.278Z,0.00
2023-02-05T00:10:13.259Z,0.00
2023-02-05T00:11:13.245Z,0.00
2023-02-05T00:12:13.235Z,0.00
2023-02-05T00:13:13.220Z,0.00
2023-02-05T00:14:13.207Z,0.00
2023-02-05T00:15:13.193Z,0.00
2023-02-05T00:16:13.240Z,0.00
2023-02-05T00:17:13.204Z,0.00
2023-02-05T00:18:13.162Z,0.00
2023-02-05T00:19:13.143Z,0.00
2023-02-05T00:20:13.131Z,0.00
2023-02-05T00:21:13.117Z,0.00
2023-02-05T00:22:13.105Z,0.00
2023-02-05T00:23:13.095Z,0.00
2023-02-05T00:24:13.082Z,0.00
2023-02-05T00:25:13.065Z,0.00
2023-02-05T00:26:13.054Z,0.00
2023-02-05T00:27:13.039Z,0.00
2023-02-05T00:28:13.109Z,0.00
2023-02-05T00:29:13.014Z,0.00
2023-02-05T00:30:13.003Z,0.00
2023-02-05T00:31:13.091Z,0.00
2023-02-05T00:32:12.979Z,0.00
2023-02-05T00:33:12.986Z,0.00
2023-02-05T00:34:12.952Z,0.00
2023-02-05T00:35:12.940Z,0.00
2023-02-05T00:36:13.120Z,0.00
2023-02-05T00:37:12.919Z,0.00
2023-02-05T00:38:12.899Z,0.00
2023-02-05T00:39:12.887Z,0.00
2023-02-05T00:40:12.880Z,0.00
2023-02-05T00:41:12.872Z,0.00
2023-02-05T00:42:12.848Z,0.00
2023-02-05T00:43:12.833Z,0.00
2023-02-05T00:44:12.831Z,0.00
2023-02-05T00:45:12.810Z,0.00
2023-02-05T00:46:12.859Z,0.00
2023-02-05T00:47:12.782Z,0.00
2023-02-05T00:48:12.774Z,0.00
2023-02-05T00:49:12.780Z,0.00
2023-02-05T00:50:12.745Z,0.00
2023-02-05T00:51:12.736Z,0.00
2023-02-05T00:52:12.752Z,0.00
2023-02-05T00:53:12.707Z,0.00
2023-02-05T00:54:12.709Z,0.00
2023-02-05T00:55:12.679Z,0.00
2023-02-05T00:56:12.671Z,0.00
2023-02-05T00:57:12.656Z,0.00
2023-02-05T00:58:12.642Z,0.00
2023-02-05T00:59:12.627Z,0.00
2023-02-05T01:00:12.616Z,0.00
2023-02-05T01:01:12.642Z,0.00
2023-02-05T01:02:12.612Z,0.00
2023-02-05T01:03:12.577Z,0.00
2023-02-05T01:04:12.570Z,0.00
2023-02-05T01:05:12.577Z,0.00
2023-02-05T01:06:12.583Z,0.00
2023-02-05T01:07:12.536Z,0.00
2023-02-05T01:08:12.528Z,0.00
2023-02-05T01:09:12.507Z,0.00
2023-02-05T01:10:12.490Z,0.00
2023-02-05T01:11:12.476Z,0.00
2023-02-05T01:12:12.465Z,0.00
2023-02-05T01:13:12.452Z,0.00
2023-02-05T01:14:12.439Z,0.00
2023-02-05T01:15:12.428Z,0.00
2023-02-05T01:16:12.465Z,0.00
2023-02-05T01:17:12.400Z,0.00
2023-02-05T01:18:12.391Z,0.00
2023-02-05T01:19:12.377Z,0.00
2023-02-05T01:20:12.371Z,0.00
2023-02-05T01:21:12.385Z,0.00
2023-02-05T01:22:12.345Z,0.00
2023-02-05T01:23:12.335Z,0.00
2023-02-05T01:24:12.317Z,0.00
2023-02-05T01:25:12.307Z,0.00
2023-02-05T01:26:12.302Z,0.00
2023-02-05T01:27:12.278Z,0.00
2023-02-05T01:28:12.290Z,0.00
2023-02-05T01:29:12.255Z,0.00
2023-02-05T01:30:12.247Z,0.00
2023-02-05T01:31:12.382Z,0.00
2023-02-05T01:32:12.218Z,0.00
2023-02-05T01:33:12.206Z,0.00
2023-02-05T01:34:12.194Z,0.00
2023-02-05T01:35:12.180Z,0.00
2023-02-05T01:36:12.170Z,0.00
2023-02-05T01:37:12.178Z,0.00
2023-02-05T01:38:12.144Z,0.00
2023-02-05T01:39:12.134Z,0.00
2023-02-05T01:40:12.116Z,0.00
2023-02-05T01:41:12.103Z,0.00
2023-02-05T01:42:12.094Z,0.00
2023-02-05T01:43:12.099Z,0.00
2023-02-05T01:45:12.055Z,0.00
2023-02-05T01:46:12.073Z,0.00
2023-02-05T01:47:12.076Z,0.00
2023-02-05T01:48:12.014Z,0.00
2023-02-05T01:49:12.016Z,0.00
2023-02-05T01:50:12.017Z,0.00
2023-02-05T01:51:11.996Z,0.00
2023-02-05T01:52:11.984Z,0.00
2023-02-05T01:53:11.978Z,0.00
2023-02-05T01:54:11.939Z,0.00
2023-02-05T01:55:11.927Z,0.00
2023-02-05T01:56:11.913Z,0.00
2023-02-05T01:57:11.901Z,0.00
2023-02-05T01:58:11.901Z,0.00
2023-02-05T01:59:11.888Z,0.00
2023-02-05T02:00:11.867Z,0.00
2023-02-05T02:01:11.877Z,0.00
2023-02-05T02:02:11.840Z,0.00
2023-02-05T02:03:11.826Z,0.00
2023-02-05T02:04:11.816Z,0.00
2023-02-05T02:05:11.840Z,0.00
2023-02-05T02:06:11.786Z,0.00
2023-02-05T02:07:11.785Z,0.00
2023-02-05T02:08:11.763Z,0.00
2023-02-05T02:09:11.777Z,0.00
2023-02-05T02:10:11.737Z,0.00
2023-02-05T02:11:11.723Z,0.00
2023-02-05T02:12:11.711Z,0.00
2023-02-05T02:13:11.700Z,0.00
2023-02-05T02:14:11.692Z,0.00
2023-02-05T02:15:11.672Z,0.00
2023-02-05T02:16:11.663Z,0.00
2023-02-05T02:17:11.646Z,0.00
2023-02-05T02:18:11.633Z,0.00
2023-02-05T02:19:11.627Z,0.00
2023-02-05T02:20:11.612Z,0.00
2023-02-05T02:21:11.594Z,0.00
2023-02-05T02:22:11.582Z,0.00
2023-02-05T02:23:11.579Z,0.00
2023-02-05T02:24:11.558Z,0.00
2023-02-05T02:25:11.567Z,0.00
2023-02-05T02:26:11.537Z,0.00
2023-02-05T02:27:11.536Z,0.00
2023-02-05T02:28:11.595Z,0.00
2023-02-05T02:29:11.495Z,0.00
2023-02-05T02:30:11.482Z,0.00
2023-02-05T02:31:11.493Z,0.00
2023-02-05T02:32:11.458Z,0.00
2023-02-05T02:33:11.448Z,0.00
2023-02-05T02:34:11.433Z,0.00
2023-02-05T02:35:11.418Z,0.00
2023-02-05T02:36:11.403Z,0.00
2023-02-05T02:37:11.394Z,0.00
2023-02-05T02:38:11.377Z,0.00
2023-02-05T02:39:11.364Z,0.00
2023-02-05T02:40:11.370Z,0.00
2023-02-05T02:41:11.457Z,0.00
2023-02-05T02:42:11.325Z,0.00
2023-02-05T02:43:11.318Z,0.00
2023-02-05T02:44:11.304Z,0.00
2023-02-05T02:45:11.291Z,0.00
2023-02-05T02:46:11.302Z,0.00
2023-02-05T02:47:11.268Z,0.00
2023-02-05T02:48:11.254Z,0.00
2023-02-05T02:49:11.247Z,0.00
2023-02-05T02:50:11.246Z,0.00
2023-02-05T02:51:11.217Z,0.00
2023-02-05T02:52:11.210Z,0.00
2023-02-05T02:53:11.194Z,0.00
2023-02-05T02:54:11.178Z,0.00
2023-02-05T02:55:11.170Z,0.00
2023-02-05T02:56:11.154Z,0.00
2023-02-05T02:57:11.165Z,0.00
2023-02-05T02:58:11.137Z,0.00
2023-02-05T02:59:11.118Z,0.00
2023-02-05T03:00:11.112Z,0.00
2023-02-05T03:01:11.184Z,0.00
2023-02-05T03:02:11.097Z,0.00
2023-02-05T03:03:11.067Z,0.00
2023-02-05T03:04:11.055Z,0.00
2023-02-05T03:05:11.039Z,0.00
2023-02-05T03:06:11.026Z,0.00
2023-02-05T03:07:11.013Z,0.00
2023-02-05T03:08:11.003Z,0.00
2023-02-05T03:09:10.987Z,0.00
2023-02-05T03:10:10.973Z,0.00
2023-02-05T03:11:10.962Z,0.00
2023-02-05T03:12:10.947Z,0.00
2023-02-05T03:13:10.987Z,0.00
2023-02-05T03:14:10.921Z,0.00
2023-02-05T03:15:10.911Z,0.00
2023-02-05T03:16:10.983Z,0.00
2023-02-05T03:17:10.896Z,0.00
2023-02-05T03:18:10.870Z,0.00
2023-02-05T03:19:10.857Z,0.00
2023-02-05T03:20:10.845Z,0.00
2023-02-05T03:21:10.830Z,0.00
2023-02-05T03:22:10.817Z,0.00
2023-02-05T03:23:10.805Z,0.00
2023-02-05T03:24:10.794Z,0.00
2023-02-05T03:25:10.780Z,0.00
2023-02-05T03:26:10.770Z,0.00
2023-02-05T03:27:10.756Z,0.00
2023-02-05T03:28:10.854Z,0.00
2023-02-05T03:29:10.767Z,0.00
2023-02-05T03:30:10.715Z,0.00
2023-02-05T03:31:10.795Z,0.00
2023-02-05T03:32:10.693Z,0.00
2023-02-05T03:33:10.681Z,0.00
2023-02-05T03:34:10.667Z,0.00
2023-02-05T03:35:10.654Z,0.00
2023-02-05T03:36:10.642Z,0.00
2023-02-05T03:37:10.632Z,0.00
2023-02-05T03:38:10.616Z,0.00
2023-02-05T03:39:10.605Z,0.00
2023-02-05T03:40:10.597Z,0.00
2023-02-05T03:41:10.584Z,0.00
2023-02-05T03:42:10.599Z,0.00
2023-02-05T03:43:10.555Z,0.00
2023-02-05T03:44:10.543Z,0.00
2023-02-05T03:45:10.559Z,0.00
2023-02-05T03:46:10.570Z,0.00
2023-02-05T03:47:10.659Z,0.00
2023-02-05T03:48:10.493Z,0.00
2023-02-05T03:49:10.486Z,0.00
2023-02-05T03:50:10.468Z,0.00
2023-02-05T03:51:10.458Z,0.00
2023-02-05T03:52:10.455Z,0.00
2023-02-05T03:53:10.431Z,0.00
2023-02-05T03:54:10.415Z,0.00
2023-02-05T03:55:10.408Z,0.00
2023-02-05T03:56:10.394Z,0.00
2023-02-05T03:57:10.377Z,0.00
2023-02-05T03:58:10.364Z,0.00
2023-02-05T03:59:10.352Z,0.00
2023-02-05T04:00:10.340Z,0.00
2023-02-05T04:01:10.457Z,0.00
2023-02-05T04:02:10.326Z,0.00
2023-02-05T04:03:10.307Z,0.00
2023-02-05T04:04:10.288Z,0.00
2023-02-05T04:05:10.275Z,0.00
2023-02-05T04:06:10.267Z,0.00
2023-02-05T04:07:10.251Z,0.00
2023-02-05T04:08:10.238Z,0.00
2023-02-05T04:09:10.228Z,0.00
2023-02-05T04:10:10.211Z,0.00
2023-02-05T04:11:10.199Z,0.00
2023-02-05T04:12:10.185Z,0.00
2023-02-05T04:13:10.850Z,0.00
2023-02-05T04:14:10.158Z,0.00
2023-02-05T04:15:10.148Z,0.00
2023-02-05T04:16:10.153Z,0.00
2023-02-05T04:17:10.147Z,0.00
2023-02-05T04:18:10.110Z,0.00
2023-02-05T04:19:10.094Z,0.00
2023-02-05T04:20:10.083Z,0.00
2023-02-05T04:21:10.073Z,0.00
2023-02-05T04:22:10.060Z,0.00
2023-02-05T04:23:10.044Z,0.00
2023-02-05T04:24:10.129Z,0.00
2023-02-05T04:25:10.034Z,0.00
2023-02-05T04:26:10.013Z,0.00
2023-02-05T04:27:10.003Z,0.00
2023-02-05T04:28:10.050Z,0.00
2023-02-05T04:29:10.017Z,0.00
2023-02-05T04:30:09.960Z,0.00
2023-02-05T04:31:09.948Z,0.00
2023-02-05T04:32:09.948Z,0.00
2023-02-05T04:33:10.007Z,0.00
2023-02-05T04:34:09.923Z,0.00
2023-02-05T04:35:09.902Z,0.00
2023-02-05T04:36:09.893Z,0.00
2023-02-05T04:37:09.875Z,0.00
2023-02-05T04:38:09.867Z,0.00
2023-02-05T04:39:09.853Z,0.00
2023-02-05T04:40:09.880Z,0.00
2023-02-05T04:41:09.825Z,0.00
2023-02-05T04:42:09.811Z,0.00
2023-02-05T04:43:09.815Z,0.00
2023-02-05T04:44:09.808Z,0.00
2023-02-05T04:45:09.787Z,0.00
2023-02-05T04:46:09.804Z,0.00
2023-02-05T04:47:09.760Z,0.00
2023-02-05T04:48:09.757Z,0.00
2023-02-05T04:49:09.759Z,0.00
2023-02-05T04:50:09.723Z,0.00
2023-02-05T04:51:09.729Z,0.00
2023-02-05T04:52:09.725Z,0.00
2023-02-05T04:53:09.680Z,0.00
2023-02-05T04:54:09.662Z,0.00
2023-02-05T04:55:09.652Z,0.00
2023-02-05T04:56:09.644Z,0.00
2023-02-05T04:57:09.633Z,0.00
2023-02-05T04:58:09.618Z,0.00
2023-02-05T04:59:09.606Z,0.00
2023-02-05T05:00:09.592Z,0.00
2023-02-05T05:01:09.641Z,0.00
2023-02-05T05:02:09.629Z,0.00
2023-02-05T05:03:09.565Z,0.00
2023-02-05T05:04:09.551Z,0.00
2023-02-05T05:05:09.556Z,0.00
2023-02-05T05:06:09.516Z,0.00
2023-02-05T05:07:09.508Z,0.00
2023-02-05T05:08:09.491Z,0.00
2023-02-05T05:09:09.494Z,0.00
2023-02-05T05:10:09.467Z,0.00
2023-02-05T05:11:09.454Z,0.00
2023-02-05T05:12:09.439Z,0.00
2023-02-05T05:13:09.429Z,0.00
2023-02-05T05:14:09.416Z,0.00
2023-02-05T05:15:09.407Z,0.00
2023-02-05T05:16:09.452Z,0.00
2023-02-05T05:17:09.382Z,0.00
2023-02-05T05:18:09.368Z,0.00
2023-02-05T05:19:09.362Z,0.00
2023-02-05T05:20:09.350Z,0.00
2023-02-05T05:21:09.355Z,0.00
2023-02-05T05:22:09.316Z,0.00
2023-02-05T05:23:09.309Z,0.00
2023-02-05T05:24:09.293Z,0.00
2023-02-05T05:25:09.282Z,0.00
2023-02-05T05:26:09.270Z,0.00
2023-02-05T05:27:09.257Z,0.00
2023-02-05T05:28:09.287Z,0.00
2023-02-05T05:29:09.232Z,0.00
2023-02-05T05:30:09.226Z,0.00
2023-02-05T05:31:09.318Z,0.00
2023-02-05T05:32:09.217Z,0.00
2023-02-05T05:33:09.186Z,0.00
2023-02-05T05:34:09.174Z,0.00
2023-02-05T05:35:09.163Z,0.00
2023-02-05T05:36:09.145Z,0.00
2023-02-05T05:37:09.170Z,0.00
2023-02-05T05:38:09.121Z,0.00
2023-02-05T05:39:09.107Z,0.00
2023-02-05T05:40:09.101Z,0.00
2023-02-05T05:41:09.082Z,0.00
2023-02-05T05:42:09.069Z,0.00
2023-02-05T05:43:09.059Z,0.00
2023-02-05T05:44:09.058Z,0.00
2023-02-05T05:46:09.047Z,0.00
2023-02-05T05:47:09.009Z,0.00
2023-02-05T05:48:09.000Z,0.00
2023-02-05T05:49:08.988Z,0.00
2023-02-05T05:50:08.969Z,0.00
2023-02-05T05:51:08.957Z,0.00
2023-02-05T05:52:08.946Z,0.00
2023-02-05T05:53:08.962Z,0.00
2023-02-05T05:54:08.946Z,0.00
2023-02-05T05:55:08.910Z,0.00
2023-02-05T05:56:08.891Z,0.00
2023-02-05T05:57:08.880Z,0.00
2023-02-05T05:58:08.865Z,0.00
2023-02-05T05:59:08.856Z,0.00
2023-02-05T06:00:08.855Z,0.00
2023-02-05T06:01:08.829Z,0.00
2023-02-05T06:02:08.898Z,0.00
2023-02-05T06:03:08.803Z,0.00
2023-02-05T06:04:08.860Z,0.00
2023-02-05T06:05:08.777Z,0.00
2023-02-05T06:06:08.764Z,0.00
2023-02-05T06:07:08.756Z,0.00
2023-02-05T06:08:08.750Z,0.00
2023-02-05T06:09:08.762Z,0.00
2023-02-05T06:10:08.716Z,0.00
2023-02-05T06:11:08.737Z,0.00
2023-02-05T06:12:10.699Z,0.00
2023-02-05T06:13:08.675Z,0.00
2023-02-05T06:14:08.662Z,0.00
2023-02-05T06:15:08.655Z,0.00
2023-02-05T06:16:08.678Z,0.00
2023-02-05T06:17:08.638Z,0.00
2023-02-05T06:18:08.611Z,0.00
2023-02-05T06:19:08.615Z,0.00
2023-02-05T06:20:08.596Z,0.00
2023-02-05T06:21:08.583Z,0.00
2023-02-05T06:22:08.569Z,0.00
2023-02-05T06:23:08.549Z,0.00
2023-02-05T06:24:08.560Z,0.00
2023-02-05T06:25:08.555Z,0.00
2023-02-05T06:26:08.513Z,0.00
2023-02-05T06:27:08.501Z,0.00
2023-02-05T06:28:08.509Z,0.00
2023-02-05T06:29:08.481Z,0.00
2023-02-05T06:30:08.465Z,0.00
2023-02-05T06:31:08.602Z,0.00
2023-02-05T06:32:08.440Z,0.00
2023-02-05T06:33:08.427Z,0.00
2023-02-05T06:34:08.416Z,0.00
2023-02-05T06:35:08.402Z,0.00
2023-02-05T06:36:08.394Z,0.00
2023-02-05T06:37:08.381Z,0.00
2023-02-05T06:38:08.380Z,0.00
2023-02-05T06:39:08.353Z,0.00
2023-02-05T06:40:08.339Z,0.00
2023-02-05T06:41:08.484Z,0.00
2023-02-05T06:42:08.314Z,0.00
2023-02-05T06:43:08.308Z,0.00
2023-02-05T06:44:08.289Z,0.00
2023-02-05T06:45:08.277Z,0.00
2023-02-05T06:46:08.294Z,0.00
2023-02-05T06:47:08.254Z,0.00
2023-02-05T06:48:08.242Z,0.00
2023-02-05T06:49:08.229Z,0.00
2023-02-05T06:50:08.215Z,0.00
2023-02-05T06:51:08.207Z,0.00
2023-02-05T06:52:08.191Z,0.00
2023-02-05T06:53:08.918Z,0.00
2023-02-05T06:54:08.168Z,0.00
2023-02-05T06:55:08.159Z,0.00
2023-02-05T06:56:08.144Z,0.00
2023-02-05T06:57:08.157Z,0.00
2023-02-05T06:58:08.123Z,0.00
2023-02-05T06:59:08.108Z,0.00
2023-02-05T07:00:08.092Z,0.00
2023-02-05T07:01:08.083Z,0.00
2023-02-05T07:02:08.070Z,0.00
2023-02-05T07:03:08.057Z,0.00
2023-02-05T07:04:08.044Z,5.62
2023-02-05T07:05:08.038Z,5.62
2023-02-05T07:06:08.043Z,5.62
2023-02-05T07:07:08.008Z,5.62
2023-02-05T07:08:07.995Z,5.62
2023-02-05T07:09:07.987Z,5.62
2023-02-05T07:10:07.973Z,5.62
2023-02-05T07:11:07.960Z,5.62
2023-02-05T07:12:07.948Z,5.62
2023-02-05T07:13:07.956Z,5.62
2023-02-05T07:14:07.923Z,5.62
2023-02-05T07:15:07.908Z,11.25
2023-02-05T07:16:07.970Z,11.25
2023-02-05T07:17:07.887Z,5.62
2023-02-05T07:18:07.903Z,5.62
2023-02-05T07:19:07.857Z,5.62
2023-02-05T07:20:07.849Z,11.25
2023-02-05T07:21:07.838Z,11.25
2023-02-05T07:22:07.824Z,11.25
2023-02-05T07:23:07.811Z,16.87
2023-02-05T07:24:07.800Z,16.87
2023-02-05T07:25:07.790Z,11.25
2023-02-05T07:26:07.779Z,11.25
2023-02-05T07:27:07.769Z,11.25
2023-02-05T07:28:07.841Z,11.25
2023-02-05T07:29:07.763Z,11.25
2023-02-05T07:30:07.727Z,11.25
2023-02-05T07:31:07.874Z,11.25
2023-02-05T07:32:07.843Z,16.87
2023-02-05T07:33:07.685Z,16.87
2023-02-05T07:34:07.682Z,16.87
2023-02-05T07:35:07.660Z,16.87
2023-02-05T07:36:07.646Z,16.87
2023-02-05T07:37:07.630Z,16.87
2023-02-05T07:38:07.628Z,16.87
2023-02-05T07:39:07.604Z,16.87
2023-02-05T07:40:07.590Z,16.87
2023-02-05T07:41:07.575Z,22.50
2023-02-05T07:42:07.580Z,16.87
2023-02-05T07:43:07.547Z,16.87
2023-02-05T07:44:07.536Z,16.87
2023-02-05T07:45:07.583Z,16.87
2023-02-05T07:46:07.528Z,16.87
2023-02-05T07:47:07.493Z,16.87
2023-02-05T07:48:07.487Z,16.87
2023-02-05T07:49:07.469Z,16.87
2023-02-05T07:50:07.470Z,16.87
2023-02-05T07:51:07.440Z,16.87
2023-02-05T07:52:07.432Z,16.87
2023-02-05T07:53:07.422Z,22.50
2023-02-05T07:54:07.420Z,28.12
2023-02-05T07:55:07.390Z,33.75
2023-02-05T07:56:07.378Z,39.37
2023-02-05T07:57:07.364Z,45.00
2023-02-05T07:58:07.353Z,56.25
2023-02-05T07:59:07.338Z,67.50
2023-02-05T08:00:07.329Z,73.12
2023-02-05T08:01:07.455Z,73.12
2023-02-05T08:02:07.302Z,73.12
2023-02-05T08:03:07.289Z,67.50
2023-02-05T08:04:07.362Z,61.87
2023-02-05T08:05:07.268Z,56.25
2023-02-05T08:06:07.273Z,50.62
2023-02-05T08:07:07.251Z,45.00
2023-02-05T08:08:07.227Z,39.37
2023-02-05T08:09:07.216Z,39.37
2023-02-05T08:10:07.213Z,39.37
2023-02-05T08:11:07.202Z,45.00
2023-02-05T08:12:07.178Z,45.00
2023-02-05T08:13:07.166Z,50.62
2023-02-05T08:14:07.156Z,56.25
2023-02-05T08:15:07.147Z,61.87
2023-02-05T08:16:07.241Z,67.50
2023-02-05T08:17:07.182Z,73.12
2023-02-05T08:18:07.108Z,78.75
2023-02-05T08:19:07.090Z,78.75
2023-02-05T08:20:07.116Z,84.37
2023-02-05T08:21:07.066Z,90.00
2023-02-05T08:22:07.052Z,90.00
2023-02-05T08:23:07.044Z,90.00
2023-02-05T08:24:07.026Z,84.37
2023-02-05T08:25:07.010Z,84.37
2023-02-05T08:26:06.999Z,78.75
2023-02-05T08:27:06.986Z,84.37
2023-02-05T08:28:07.007Z,84.37
2023-02-05T08:29:06.960Z,78.75
2023-02-05T08:30:06.947Z,67.50
2023-02-05T08:31:06.933Z,67.50
2023-02-05T08:32:06.921Z,67.50
2023-02-05T08:33:06.934Z,73.12
2023-02-05T08:34:06.916Z,73.12
2023-02-05T08:35:06.881Z,78.75
2023-02-05T08:36:06.869Z,90.00
2023-02-05T08:37:06.850Z,90.00
2023-02-05T08:38:06.839Z,78.75
2023-02-05T08:39:06.824Z,73.12
2023-02-05T08:40:06.816Z,61.87
2023-02-05T08:41:06.798Z,67.50
2023-02-05T08:42:06.784Z,61.87
2023-02-05T08:43:06.769Z,61.87
2023-02-05T08:44:06.757Z,61.87
2023-02-05T08:45:06.743Z,61.87
2023-02-05T08:46:06.822Z,67.50
2023-02-05T08:47:06.715Z,78.75
2023-02-05T08:48:06.703Z,95.62
2023-02-05T08:49:06.716Z,101.25
2023-02-05T08:50:06.714Z,95.62
2023-02-05T08:51:06.661Z,84.37
2023-02-05T08:52:06.653Z,90.00
2023-02-05T08:53:06.640Z,90.00
2023-02-05T08:54:06.625Z,95.62
2023-02-05T08:55:06.608Z,106.87
2023-02-05T08:56:06.604Z,106.87
2023-02-05T08:57:06.581Z,106.87
2023-02-05T08:58:06.570Z,106.87
2023-02-05T08:59:06.554Z,106.87
2023-02-05T09:00:06.541Z,112.50
2023-02-05T09:01:06.571Z,118.12
2023-02-05T09:02:06.515Z,112.50
2023-02-05T09:03:06.502Z,106.87
2023-02-05T09:04:06.538Z,112.50
2023-02-05T09:05:09.389Z,118.12
2023-02-05T09:06:06.463Z,123.75
2023-02-05T09:07:06.449Z,129.37
2023-02-05T09:08:06.432Z,129.37
2023-02-05T09:09:06.418Z,129.37
2023-02-05T09:10:06.407Z,135.00
2023-02-05T09:11:06.400Z,140.62
2023-02-05T09:12:06.382Z,140.62
2023-02-05T09:13:06.365Z,140.62
2023-02-05T09:14:06.355Z,140.62
2023-02-05T09:15:06.343Z,129.37
2023-02-05T09:16:06.327Z,112.50
2023-02-05T09:17:06.309Z,95.62
2023-02-05T09:18:06.299Z,90.00
2023-02-05T09:19:06.288Z,84.37
2023-02-05T09:20:06.273Z,78.75
2023-02-05T09:21:06.287Z,73.12
2023-02-05T09:22:06.248Z,73.12
2023-02-05T09:23:06.235Z,67.50
2023-02-05T09:24:06.224Z,67.50
2023-02-05T09:25:06.210Z,73.12
2023-02-05T09:26:06.200Z,78.75
2023-02-05T09:27:06.764Z,95.62
2023-02-05T09:28:06.194Z,112.50
2023-02-05T09:29:06.158Z,118.12
2023-02-05T09:30:06.148Z,112.50
2023-02-05T09:31:06.263Z,118.12
2023-02-05T09:32:06.120Z,112.50
2023-02-05T09:33:06.105Z,106.87
2023-02-05T09:34:06.094Z,95.62
2023-02-05T09:35:06.079Z,84.37
2023-02-05T09:36:06.068Z,78.75
2023-02-05T09:37:06.086Z,84.37
2023-02-05T09:38:06.042Z,84.37
2023-02-05T09:39:15.870Z,90.00
2023-02-05T09:40:20.399Z,106.87
2023-02-05T09:41:08.000Z,129.37
2023-02-05T09:42:05.990Z,129.37
2023-02-05T09:43:05.974Z,135.00
2023-02-05T09:44:05.964Z,146.25
2023-02-05T09:45:05.947Z,163.12
2023-02-05T09:47:05.921Z,135.00
2023-02-05T09:48:05.917Z,112.50
2023-02-05T09:49:05.892Z,101.25
2023-02-05T09:50:05.885Z,90.00
2023-02-05T09:51:05.867Z,90.00
2023-02-05T09:52:05.857Z,90.00
2023-02-05T09:53:05.885Z,90.00
2023-02-05T09:54:05.836Z,84.37
2023-02-05T09:55:05.813Z,78.75
2023-02-05T09:56:05.801Z,73.12
2023-02-05T09:57:05.798Z,73.12
2023-02-05T09:58:05.775Z,67.50
2023-02-05T09:59:05.776Z,67.50
2023-02-05T10:00:05.756Z,67.50
2023-02-05T10:01:05.753Z,67.50
2023-02-05T10:02:06.011Z,67.50
2023-02-05T10:03:05.713Z,67.50
2023-02-05T10:04:05.712Z,73.12
2023-02-05T10:05:05.680Z,73.12
2023-02-05T10:06:05.677Z,67.50
2023-02-05T10:07:05.653Z,73.12
2023-02-05T10:08:05.640Z,78.75
2023-02-05T10:09:05.654Z,78.75
2023-02-05T10:10:05.613Z,78.75
2023-02-05T10:11:05.599Z,78.75
2023-02-05T10:12:05.585Z,84.37
2023-02-05T10:13:05.576Z,90.00
2023-02-05T10:14:05.560Z,95.62
2023-02-05T10:15:05.546Z,95.62
2023-02-05T10:16:05.554Z,90.00
2023-02-05T10:17:05.518Z,90.00
2023-02-05T10:18:05.511Z,95.62
2023-02-05T10:19:05.492Z,95.62
2023-02-05T10:20:07.290Z,90.00
2023-02-05T10:21:05.465Z,95.62
2023-02-05T10:22:05.452Z,101.25
2023-02-05T10:23:05.439Z,106.87
2023-02-05T10:24:05.455Z,123.75
2023-02-05T10:25:05.442Z,135.00
2023-02-05T10:26:05.411Z,140.62
2023-02-05T10:27:05.388Z,140.62
2023-02-05T10:28:05.405Z,140.62
2023-02-05T10:29:05.364Z,135.00
2023-02-05T10:30:05.352Z,129.37
2023-02-05T10:31:05.466Z,118.12
2023-02-05T10:32:05.327Z,106.87
2023-02-05T10:33:05.313Z,106.87
2023-02-05T10:34:05.301Z,106.87
2023-02-05T10:35:05.287Z,106.87
2023-02-05T10:36:05.277Z,106.87
2023-02-05T10:37:05.271Z,106.87
2023-02-05T10:38:06.043Z,106.87
2023-02-05T10:39:05.235Z,106.87
2023-02-05T10:40:05.227Z,101.25
2023-02-05T10:41:05.235Z,106.87
2023-02-05T10:42:05.202Z,106.87
2023-02-05T10:43:05.203Z,78.75
2023-02-05T10:44:05.173Z,95.62
2023-02-05T10:45:05.275Z,123.75
2023-02-05T10:46:05.279Z,129.37
2023-02-05T10:47:05.130Z,135.00
2023-02-05T10:48:05.123Z,151.87
2023-02-05T10:49:05.110Z,157.50
2023-02-05T10:50:05.098Z,140.62
2023-02-05T10:51:05.081Z,118.12
2023-02-05T10:52:05.069Z,95.62
2023-02-05T10:53:05.053Z,78.75
2023-02-05T10:54:05.043Z,84.37
2023-02-05T10:55:05.028Z,106.87
2023-02-05T10:56:05.026Z,106.87
2023-02-05T10:57:05.027Z,106.87
2023-02-05T10:58:04.990Z,101.25
2023-02-05T10:59:04.976Z,101.25
2023-02-05T11:00:04.981Z,118.12
2023-02-05T11:01:04.955Z,123.75
2023-02-05T11:02:04.937Z,140.62
2023-02-05T11:03:04.922Z,151.87
2023-02-05T11:04:04.911Z,151.87
2023-02-05T11:05:04.896Z,146.25
2023-02-05T11:06:04.888Z,140.62
2023-02-05T11:07:04.869Z,135.00
2023-02-05T11:08:04.859Z,135.00
2023-02-05T11:09:04.866Z,129.37
2023-02-05T11:10:04.833Z,123.75
2023-02-05T11:11:04.824Z,129.37
2023-02-05T11:12:04.805Z,140.62
2023-02-05T11:13:04.825Z,151.87
2023-02-05T11:14:04.784Z,163.12
2023-02-05T11:15:04.769Z,168.75
2023-02-05T11:16:04.800Z,163.12
2023-02-05T11:17:04.742Z,151.87
2023-02-05T11:18:04.727Z,157.50
2023-02-05T11:19:04.715Z,157.50
2023-02-05T11:20:04.700Z,157.50
2023-02-05T11:21:04.689Z,151.87
2023-02-05T11:22:04.674Z,146.25
2023-02-05T11:23:04.663Z,135.00
2023-02-05T11:24:04.650Z,129.37
2023-02-05T11:25:04.640Z,135.00
2023-02-05T11:26:04.622Z,140.62
2023-02-05T11:27:04.613Z,140.62
2023-02-05T11:28:04.685Z,140.62
2023-02-05T11:29:04.612Z,135.00
2023-02-05T11:30:04.570Z,135.00
2023-02-05T11:31:04.591Z,135.00
2023-02-05T11:32:04.621Z,140.62
2023-02-05T11:33:04.533Z,129.37
2023-02-05T11:34:04.518Z,112.50
2023-02-05T11:35:04.509Z,101.25
2023-02-05T11:36:04.507Z,95.62
2023-02-05T11:37:04.484Z,90.00
2023-02-05T11:38:06.640Z,84.37
2023-02-05T11:39:04.455Z,90.00
2023-02-05T11:40:04.440Z,90.00
2023-02-05T11:41:04.430Z,90.00
2023-02-05T11:42:04.416Z,84.37
2023-02-05T11:43:04.417Z,84.37
2023-02-05T11:44:04.396Z,101.25
2023-02-05T11:45:04.399Z,123.75
2023-02-05T11:46:04.365Z,140.62
2023-02-05T11:47:04.358Z,129.37
2023-02-05T11:48:04.350Z,123.75
2023-02-05T11:49:04.326Z,123.75
2023-02-05T11:50:04.314Z,146.25
2023-02-05T11:51:04.301Z,151.87
2023-02-05T11:52:04.284Z,151.87
2023-02-05T11:53:04.277Z,140.62
2023-02-05T11:54:04.258Z,140.62
2023-02-05T11:55:04.248Z,123.75
2023-02-05T11:56:04.234Z,123.75
2023-02-05T11:57:04.224Z,135.00
2023-02-05T11:58:04.212Z,140.62
2023-02-05T11:59:04.196Z,151.87
2023-02-05T12:00:04.188Z,174.37
2023-02-05T12:01:04.229Z,196.87
2023-02-05T12:02:04.213Z,219.37
2023-02-05T12:03:04.229Z,258.75
2023-02-05T12:04:04.138Z,270.00
2023-02-05T12:05:04.122Z,270.00
2023-02-05T12:06:04.106Z,241.87
2023-02-05T12:07:04.093Z,225.00
2023-02-05T12:08:04.080Z,219.37
2023-02-05T12:09:04.080Z,236.25
2023-02-05T12:10:04.053Z,247.50
2023-02-05T12:11:04.046Z,241.87
2023-02-05T12:12:04.311Z,219.37
2023-02-05T12:13:04.021Z,270.00
2023-02-05T12:14:04.005Z,281.25
2023-02-05T12:15:03.991Z,236.25
2023-02-05T12:16:03.999Z,219.37
2023-02-05T12:17:03.995Z,196.87
2023-02-05T12:18:03.950Z,185.62
2023-02-05T12:19:03.941Z,157.50
2023-02-05T12:20:03.928Z,146.25
2023-02-05T12:21:03.919Z,146.25
2023-02-05T12:22:03.909Z,168.75
2023-02-05T12:23:03.887Z,191.25
2023-02-05T12:24:03.871Z,180.00
2023-02-05T12:25:03.881Z,163.12
2023-02-05T12:26:03.850Z,146.25
2023-02-05T12:27:03.834Z,140.62
2023-02-05T12:28:03.868Z,135.00
2023-02-05T12:29:03.807Z,135.00
2023-02-05T12:30:03.793Z,140.62
2023-02-05T12:31:03.782Z,151.87
2023-02-05T12:32:03.767Z,163.12
2023-02-05T12:33:03.789Z,168.75
2023-02-05T12:34:03.742Z,174.37
2023-02-05T12:35:03.727Z,163.12
2023-02-05T12:36:03.711Z,151.87
2023-02-05T12:37:03.705Z,163.12
2023-02-05T12:38:03.684Z,163.12
2023-02-05T12:39:03.674Z,174.37
2023-02-05T12:40:03.660Z,191.25
2023-02-05T12:41:03.647Z,219.37
2023-02-05T12:42:03.636Z,225.00
2023-02-05T12:43:03.623Z,213.75
2023-02-05T12:44:03.608Z,219.37
2023-02-05T12:45:03.605Z,225.00
2023-02-05T12:46:03.650Z,225.00
2023-02-05T12:47:03.569Z,247.50
2023-02-05T12:48:03.556Z,225.00
2023-02-05T12:49:03.568Z,202.50
2023-02-05T12:50:03.535Z,174.37
2023-02-05T12:51:03.522Z,163.12
2023-02-05T12:52:03.525Z,157.50
2023-02-05T12:53:03.517Z,157.50
2023-02-05T12:54:03.476Z,151.87
2023-02-05T12:55:03.468Z,157.50
2023-02-05T12:56:03.452Z,196.87
2023-02-05T12:57:03.441Z,253.12
2023-02-05T12:58:03.421Z,281.25
2023-02-05T12:59:03.412Z,286.87
2023-02-05T13:00:03.398Z,303.75
2023-02-05T13:01:03.427Z,365.62
2023-02-05T13:02:03.373Z,382.50
2023-02-05T13:03:03.358Z,382.50